EPSC

Szczecin-Goleniów "Solidarność" Airport

Goleniow, Poland
TAF EPSC 171730Z 1718/1818 21010KT 9999 BKN040 TEMPO 1718/1808 4000 SHRASN BKN005 BKN012CB PROB40 TEMPO 1801/1805 33018G33KT 0600 SHSN BLSN BKN003 BKN009CB BECMG 1807/1809 27008KT
Issued Valid From Valid To
Jan-17 @ 17:30 UTC
(7 hours ago)
Jan-17 @ 18:00 UTC
(6 hours ago)
Jan-18 @ 18:00 UTC
(in 18 hours)
Jan-17 @ 18:00 to Jan-18 @ 07:00
TAF EPSC 171730Z 1718/1818 21010KT 9999 BKN040
Wind Visibility Clouds
210° at 10 knots 10,000+ meters
  • Broken at 4,000' AGL
Temporary Jan-17 @ 18:00 to Jan-18 @ 08:00
TEMPO 1718/1808 4000 SHRASN BKN005 BKN012CB
Visibility Clouds Conditions
4,007 meters
  • Broken at 500' AGL
  • Broken at 1,200' AGL
  • Rain
  • Snow
Temporary  (Probability 40%) Jan-18 @ 01:00 to Jan-18 @ 05:00
PROB40 TEMPO 1801/1805 33018G33KT 0600 SHSN BLSN BKN003 BKN009CB
Wind Visibility Clouds Conditions
330° at 18 knots
 Gusting to 33 knots
595 meters
  • Broken at 300' AGL
  • Broken at 900' AGL
  • Snow
  • Blowing
  • Snow
Becoming Jan-18 @ 07:00 to Jan-18 @ 18:00
BECMG 1807/1809 27008KT
Wind Visibility Clouds
270° at 8 knots 10,000+ meters
  • Broken at 4,000' AGL
TAF EPSC 171730Z 1718/1818 21010KT 9999 BKN040 TEMPO 1718/1808 4000 SHRASN BKN005 BKN012CB PROB40 TEMPO 1801/1805 33018G33KT 0600 SHSN BLSN BKN003 BKN009CB BECMG 1807/1809 27008KT
Issued Jan-17 @ 17:30 UTC
(7 hours ago)
Valid From Jan-17 @ 18:00 UTC
(6 hours ago)
Valid To Jan-18 @ 18:00 UTC
(in 18 hours)
Jan-17 @ 18:00 - Jan-18 @ 07:00
Wind Visibility
210° at 10 knots 10,000+ meters
Clouds
  • Broken at 4,000' AGL
Temporary Jan-17 @ 18:00 - Jan-18 @ 08:00
Clouds
  • Broken at 500' AGL
  • Broken at 1,200' AGL
Conditions
  • Rain
  • Snow
Probability 40% Temporary Jan-18 @ 01:00 - Jan-18 @ 05:00
Wind Visibility
330° at 18 knots
 Gusting to 33 knots
595 meters
Clouds
  • Broken at 300' AGL
  • Broken at 900' AGL
Conditions
  • Snow
  • Blowing
  • Snow
Becoming Jan-18 @ 07:00 - Jan-18 @ 18:00
Wind Visibility
270° at 8 knots 10,000+ meters
Clouds
  • Broken at 4,000' AGL